createdAt,value
2019-03-01T00:00:44.023Z,99.99
2019-03-01T00:01:44.049Z,99.99
2019-03-01T00:02:44.108Z,99.99
2019-03-01T00:03:44.095Z,99.99
2019-03-01T00:04:44.125Z,99.99
2019-03-01T00:05:44.143Z,99.99
2019-03-01T00:06:44.165Z,99.99
2019-03-01T00:07:44.195Z,99.99
2019-03-01T00:08:44.221Z,99.99
2019-03-01T00:09:44.238Z,99.99
2019-03-01T00:10:44.267Z,99.99
2019-03-01T00:11:44.298Z,99.99
2019-03-01T00:12:44.314Z,99.99
2019-03-01T00:13:44.334Z,99.99
2019-03-01T00:14:44.358Z,99.99
2019-03-01T00:15:44.381Z,99.99
2019-03-01T00:16:44.405Z,99.99
2019-03-01T00:17:44.430Z,99.99
2019-03-01T00:18:44.452Z,99.99
2019-03-01T00:19:44.480Z,99.99
2019-03-01T00:20:44.501Z,99.99
2019-03-01T00:21:44.525Z,99.99
2019-03-01T00:22:44.549Z,99.99
2019-03-01T00:23:44.573Z,99.99
2019-03-01T00:24:44.595Z,99.99
2019-03-01T00:25:44.620Z,99.99
2019-03-01T00:26:44.646Z,99.99
2019-03-01T00:27:44.674Z,99.99
2019-03-01T00:28:44.697Z,99.99
2019-03-01T00:29:44.715Z,99.99
2019-03-01T00:30:44.740Z,99.99
2019-03-01T00:31:44.764Z,99.99
2019-03-01T00:32:44.791Z,99.99
2019-03-01T00:33:44.814Z,99.99
2019-03-01T00:34:44.837Z,99.99
2019-03-01T00:35:44.865Z,99.99
2019-03-01T00:36:44.887Z,99.99
2019-03-01T00:37:44.908Z,99.99
2019-03-01T00:38:44.933Z,99.99
2019-03-01T00:39:44.958Z,99.99
2019-03-01T00:40:44.984Z,99.99
2019-03-01T00:41:45.003Z,99.99
2019-03-01T00:42:45.028Z,99.99
2019-03-01T00:43:45.050Z,99.99
2019-03-01T00:44:45.072Z,99.99
2019-03-01T00:45:45.098Z,99.99
2019-03-01T00:46:45.126Z,99.99
2019-03-01T00:47:45.146Z,99.99
2019-03-01T00:48:45.171Z,99.99
2019-03-01T00:49:45.193Z,99.99
2019-03-01T00:50:45.217Z,99.99
2019-03-01T00:51:45.242Z,99.99
2019-03-01T00:52:45.262Z,99.99
2019-03-01T00:53:45.289Z,99.99
2019-03-01T00:54:45.313Z,99.99
2019-03-01T00:55:45.336Z,99.99
2019-03-01T00:56:45.361Z,99.99
2019-03-01T00:57:45.387Z,99.99
2019-03-01T00:58:45.412Z,99.99
2019-03-01T00:59:45.434Z,99.99
2019-03-01T01:00:45.455Z,99.99
2019-03-01T01:01:45.483Z,99.99
2019-03-01T01:02:45.504Z,99.99
2019-03-01T01:03:45.532Z,99.99
2019-03-01T01:04:45.553Z,99.99
2019-03-01T01:05:45.575Z,99.99
2019-03-01T01:06:45.612Z,99.99
2019-03-01T01:07:45.641Z,99.99
2019-03-01T01:08:45.658Z,99.99
2019-03-01T01:10:38.087Z,99.99
2019-03-01T01:10:45.699Z,99.99
2019-03-01T01:12:18.930Z,99.99
2019-03-01T01:12:45.743Z,99.99
2019-03-01T01:13:45.767Z,99.99
2019-03-01T01:14:45.799Z,99.99
2019-03-01T01:15:45.817Z,99.99
2019-03-01T01:16:45.839Z,99.99
2019-03-01T01:17:45.863Z,99.99
2019-03-01T01:18:45.890Z,99.99
2019-03-01T01:19:45.915Z,99.99
2019-03-01T01:20:45.934Z,99.99
2019-03-01T01:21:45.960Z,99.99
2019-03-01T01:22:45.984Z,99.99
2019-03-01T01:23:46.008Z,99.99
2019-03-01T01:24:46.030Z,99.99
2019-03-01T01:25:46.055Z,99.99
2019-03-01T01:26:46.081Z,99.99
2019-03-01T01:27:46.102Z,99.99
2019-03-01T01:28:46.129Z,99.99
2019-03-01T01:29:46.152Z,99.99
2019-03-01T01:30:46.173Z,99.99
2019-03-01T01:31:46.198Z,99.99
2019-03-01T01:32:46.222Z,99.99
2019-03-01T01:33:46.246Z,99.99
2019-03-01T01:34:46.269Z,99.99
2019-03-01T01:35:46.291Z,99.99
2019-03-01T01:36:46.315Z,99.99
2019-03-01T01:37:46.347Z,99.99
2019-03-01T01:38:46.364Z,99.99
2019-03-01T01:39:46.391Z,99.99
2019-03-01T01:40:46.415Z,99.99
2019-03-01T01:41:46.435Z,99.99
2019-03-01T01:42:46.460Z,99.99
2019-03-01T01:43:46.485Z,99.99
2019-03-01T01:44:46.507Z,99.99
2019-03-01T01:45:46.544Z,99.99
2019-03-01T01:46:46.558Z,99.99
2019-03-01T01:47:46.579Z,99.99
2019-03-01T01:48:46.606Z,99.99
2019-03-01T01:49:46.625Z,99.99
2019-03-01T01:50:46.648Z,99.99
2019-03-01T01:51:46.676Z,99.99
2019-03-01T01:52:46.696Z,99.99
2019-03-01T01:53:46.723Z,99.99
2019-03-01T01:54:46.747Z,99.99
2019-03-01T01:55:46.769Z,99.99
2019-03-01T01:56:46.794Z,99.99
2019-03-01T01:57:46.814Z,99.99
2019-03-01T01:58:46.839Z,99.99
2019-03-01T01:59:46.863Z,99.99
2019-03-01T02:00:46.886Z,99.99
2019-03-01T02:01:46.909Z,99.99
2019-03-01T02:02:46.934Z,99.99
2019-03-01T02:03:46.957Z,99.99
2019-03-01T02:04:46.984Z,99.99
2019-03-01T02:05:47.005Z,99.99
2019-03-01T02:06:47.028Z,99.99
2019-03-01T02:07:47.054Z,99.99
2019-03-01T02:08:47.076Z,99.99
2019-03-01T02:09:47.100Z,99.99
2019-03-01T02:10:47.132Z,99.99
2019-03-01T02:11:47.149Z,99.99
2019-03-01T02:12:47.171Z,99.99
2019-03-01T02:13:47.195Z,99.99
2019-03-01T02:14:47.221Z,99.99
2019-03-01T02:15:47.242Z,99.99
2019-03-01T02:16:47.266Z,99.99
2019-03-01T02:17:47.293Z,99.99
2019-03-01T02:18:47.315Z,99.99
2019-03-01T02:19:47.338Z,99.99
2019-03-01T02:20:47.363Z,99.99
2019-03-01T02:21:47.386Z,99.99
2019-03-01T02:22:47.412Z,99.99
2019-03-01T02:23:47.436Z,99.99
2019-03-01T02:24:47.458Z,99.99
2019-03-01T02:25:47.483Z,99.99
2019-03-01T02:26:47.504Z,99.99
2019-03-01T02:27:47.530Z,99.99
2019-03-01T02:28:47.551Z,99.99
2019-03-01T02:29:47.576Z,99.99
2019-03-01T02:30:47.597Z,99.99
2019-03-01T02:31:47.625Z,99.99
2019-03-01T02:32:47.654Z,99.99
2019-03-01T02:33:47.669Z,99.99
2019-03-01T02:34:47.695Z,99.99
2019-03-01T02:35:47.720Z,99.99
2019-03-01T02:36:47.745Z,99.99
2019-03-01T02:37:47.765Z,99.99
2019-03-01T02:38:47.793Z,99.99
2019-03-01T02:39:47.816Z,99.99
2019-03-01T02:40:47.887Z,99.99
2019-03-01T02:41:47.857Z,99.99
2019-03-01T02:42:47.884Z,99.99
2019-03-01T02:43:47.911Z,99.99
2019-03-01T02:44:47.931Z,99.99
2019-03-01T02:45:47.954Z,99.99
2019-03-01T02:46:47.977Z,99.99
2019-03-01T02:47:48.000Z,99.99
2019-03-01T02:48:48.025Z,99.99
2019-03-01T02:49:48.057Z,99.99
2019-03-01T02:50:48.076Z,99.99
2019-03-01T02:51:48.095Z,99.99
2019-03-01T02:52:48.137Z,99.99
2019-03-01T02:53:48.142Z,99.99
2019-03-01T02:54:48.170Z,99.99
2019-03-01T02:55:48.197Z,99.99
2019-03-01T02:56:48.318Z,99.99
2019-03-01T02:57:48.238Z,99.99
2019-03-01T02:58:48.265Z,99.99
2019-03-01T02:59:48.287Z,99.99
2019-03-01T03:00:48.309Z,99.99
2019-03-01T03:01:48.337Z,99.99
2019-03-01T03:02:48.367Z,99.99
2019-03-01T03:03:48.380Z,99.99
2019-03-01T03:04:48.406Z,99.99
2019-03-01T03:05:48.480Z,99.99
2019-03-01T03:06:48.455Z,99.99
2019-03-01T03:07:48.477Z,99.99
2019-03-01T03:08:48.500Z,99.99
2019-03-01T03:09:48.524Z,99.99
2019-03-01T03:10:48.549Z,99.99
2019-03-01T03:11:48.568Z,99.99
2019-03-01T03:12:48.593Z,99.99
2019-03-01T03:13:48.620Z,99.99
2019-03-01T03:14:48.639Z,99.99
2019-03-01T03:15:48.668Z,99.99
2019-03-01T03:16:48.689Z,99.99
2019-03-01T03:17:48.713Z,99.99
2019-03-01T03:18:48.738Z,99.99
2019-03-01T03:19:48.762Z,99.99
2019-03-01T03:20:48.784Z,99.99
2019-03-01T03:21:48.807Z,99.99
2019-03-01T03:22:48.832Z,99.99
2019-03-01T03:23:48.871Z,99.99
2019-03-01T03:24:48.887Z,99.99
2019-03-01T03:25:48.909Z,99.99
2019-03-01T03:26:48.925Z,99.99
2019-03-01T03:27:48.962Z,99.99
2019-03-01T03:28:48.975Z,99.99
2019-03-01T03:29:48.998Z,99.99
2019-03-01T03:30:49.025Z,99.99
2019-03-01T03:31:49.049Z,99.99
2019-03-01T03:32:49.082Z,99.99
2019-03-01T03:33:49.094Z,99.99
2019-03-01T03:34:49.121Z,99.99
2019-03-01T03:35:49.146Z,99.99
2019-03-01T03:36:49.160Z,99.99
2019-03-01T03:37:49.185Z,99.99
2019-03-01T03:38:49.217Z,99.99
2019-03-01T03:39:49.237Z,99.99
2019-03-01T03:40:49.255Z,99.99
2019-03-01T03:41:49.278Z,99.99
2019-03-01T03:42:49.305Z,99.99
2019-03-01T03:43:49.338Z,99.99
2019-03-01T03:44:49.348Z,99.99
2019-03-01T03:45:49.374Z,99.99
2019-03-01T03:46:49.397Z,99.99
2019-03-01T03:47:49.466Z,99.99
2019-03-01T03:48:49.441Z,99.99
2019-03-01T03:49:49.464Z,99.99
2019-03-01T03:50:49.493Z,99.99
2019-03-01T03:51:49.514Z,99.99
2019-03-01T03:52:49.536Z,99.99
2019-03-01T03:53:49.560Z,99.99
2019-03-01T03:54:49.593Z,99.99
2019-03-01T03:55:49.607Z,99.99
2019-03-01T03:56:49.628Z,99.99
2019-03-01T03:57:49.655Z,99.99
2019-03-01T03:58:49.675Z,99.99
2019-03-01T03:59:49.719Z,99.99
2019-03-01T04:00:49.721Z,99.99
2019-03-01T04:01:49.746Z,99.99
2019-03-01T04:02:49.770Z,99.99
2019-03-01T04:03:49.793Z,99.99
2019-03-01T04:04:49.815Z,99.99
2019-03-01T04:05:49.837Z,99.99
2019-03-01T04:06:49.862Z,99.99
2019-03-01T04:07:49.896Z,99.99
2019-03-01T04:08:49.909Z,99.99
2019-03-01T04:09:49.931Z,99.99
2019-03-01T04:10:49.953Z,99.99
2019-03-01T04:11:49.979Z,99.99
2019-03-01T04:12:50.003Z,99.99
2019-03-01T04:13:50.043Z,99.99
2019-03-01T04:14:50.066Z,99.99
2019-03-01T04:15:50.070Z,99.99
2019-03-01T04:16:50.102Z,99.99
2019-03-01T04:17:50.118Z,99.99
2019-03-01T04:18:50.141Z,99.99
2019-03-01T04:19:50.173Z,99.99
2019-03-01T04:20:50.193Z,99.99
2019-03-01T04:21:50.209Z,99.99
2019-03-01T04:22:50.232Z,99.99
2019-03-01T04:23:50.264Z,99.99
2019-03-01T04:24:50.285Z,99.99
2019-03-01T04:25:50.301Z,99.99
2019-03-01T04:26:50.326Z,99.99
2019-03-01T04:27:50.352Z,99.99
2019-03-01T04:28:50.376Z,99.99
2019-03-01T04:29:50.394Z,99.99
2019-03-01T04:30:50.418Z,99.99
2019-03-01T04:31:50.444Z,99.99
2019-03-01T04:32:50.465Z,99.99
2019-03-01T04:33:50.488Z,99.99
2019-03-01T04:34:50.517Z,99.99
2019-03-01T04:35:50.540Z,99.99
2019-03-01T04:36:50.558Z,99.99
2019-03-01T04:37:50.582Z,99.99
2019-03-01T04:38:50.602Z,99.99
2019-03-01T04:39:50.625Z,99.99
2019-03-01T04:40:50.650Z,99.99
2019-03-01T04:41:50.670Z,99.99
2019-03-01T04:42:50.695Z,99.99
2019-03-01T04:43:50.718Z,99.99
2019-03-01T04:44:50.739Z,99.99
2019-03-01T04:45:50.762Z,99.99
2019-03-01T04:46:50.788Z,99.99
2019-03-01T04:47:50.809Z,99.99
2019-03-01T04:48:50.834Z,99.99
2019-03-01T04:49:50.860Z,99.99
2019-03-01T04:50:50.881Z,99.99
2019-03-01T04:51:50.905Z,99.99
2019-03-01T04:52:50.925Z,99.99
2019-03-01T04:53:50.950Z,99.99
2019-03-01T04:54:50.974Z,99.99
2019-03-01T04:55:50.994Z,99.99
2019-03-01T04:56:51.020Z,99.99
2019-03-01T04:57:51.040Z,99.99
2019-03-01T04:58:51.061Z,99.99
2019-03-01T04:59:51.085Z,99.99
2019-03-01T05:00:51.107Z,99.99
2019-03-01T05:01:51.135Z,99.99
2019-03-01T05:02:51.153Z,99.99
2019-03-01T05:03:51.177Z,99.99
2019-03-01T05:04:51.198Z,99.99
2019-03-01T05:05:51.225Z,99.99
2019-03-01T05:06:51.252Z,99.99
2019-03-01T05:07:51.268Z,99.99
2019-03-01T05:08:51.292Z,99.99
2019-03-01T05:09:51.312Z,99.99
2019-03-01T05:10:51.336Z,99.99
2019-03-01T05:11:51.359Z,99.99
2019-03-01T05:12:51.380Z,99.99
2019-03-01T05:13:51.409Z,99.99
2019-03-01T05:14:51.430Z,99.99
2019-03-01T05:15:51.452Z,99.99
2019-03-01T05:16:51.474Z,99.99
2019-03-01T05:17:51.500Z,99.99
2019-03-01T05:18:51.522Z,99.99
2019-03-01T05:19:51.543Z,99.99
2019-03-01T05:20:51.566Z,99.99
2019-03-01T05:21:51.589Z,99.99
2019-03-01T05:22:51.638Z,99.99
2019-03-01T05:23:51.634Z,99.99
2019-03-01T05:24:51.655Z,99.99
2019-03-01T05:25:51.684Z,99.99
2019-03-01T05:26:51.702Z,99.99
2019-03-01T05:27:51.727Z,99.99
2019-03-01T05:28:51.749Z,99.99
2019-03-01T05:29:51.769Z,99.99
2019-03-01T05:30:51.793Z,99.99
2019-03-01T05:31:51.815Z,99.99
2019-03-01T05:32:51.839Z,99.99
2019-03-01T05:33:51.864Z,99.99
2019-03-01T05:34:51.886Z,99.99
2019-03-01T05:35:51.909Z,99.99
2019-03-01T05:36:51.928Z,99.99
2019-03-01T05:37:51.951Z,99.99
2019-03-01T05:38:51.978Z,99.99
2019-03-01T05:39:51.997Z,99.99
2019-03-01T05:40:52.022Z,99.99
2019-03-01T05:41:52.047Z,99.99
2019-03-01T05:42:52.067Z,99.99
2019-03-01T05:43:52.089Z,99.99
2019-03-01T05:44:52.111Z,99.99
2019-03-01T05:45:52.134Z,99.99
2019-03-01T05:46:52.157Z,99.99
2019-03-01T05:47:52.179Z,99.99
2019-03-01T05:48:52.204Z,99.99
2019-03-01T05:49:52.226Z,99.99
2019-03-01T05:50:52.249Z,99.99
2019-03-01T05:51:52.270Z,99.99
2019-03-01T05:52:52.293Z,99.99
2019-03-01T05:53:52.317Z,99.99
2019-03-01T05:54:52.343Z,99.99
2019-03-01T05:55:52.365Z,99.99
2019-03-01T05:56:52.387Z,99.99
2019-03-01T05:57:52.409Z,99.99
2019-03-01T05:58:52.430Z,99.99
2019-03-01T05:59:52.455Z,99.99
2019-03-01T06:00:52.479Z,99.99
2019-03-01T06:01:52.500Z,99.99
2019-03-01T06:02:52.525Z,99.99
2019-03-01T06:03:52.546Z,99.99
2019-03-01T06:04:52.575Z,99.99
2019-03-01T06:05:52.591Z,99.99
2019-03-01T06:06:52.616Z,99.99
2019-03-01T06:07:52.638Z,99.99
2019-03-01T06:08:52.660Z,99.99
2019-03-01T06:09:52.681Z,99.99
2019-03-01T06:10:52.708Z,99.99
2019-03-01T06:11:52.732Z,99.99
2019-03-01T06:12:52.755Z,99.99
2019-03-01T06:13:52.778Z,99.99
2019-03-01T06:14:52.798Z,99.99
2019-03-01T06:15:52.825Z,99.99
2019-03-01T06:16:52.845Z,99.99
2019-03-01T06:17:52.868Z,99.99
2019-03-01T06:18:52.891Z,99.99
2019-03-01T06:19:52.916Z,99.99
2019-03-01T06:20:52.940Z,99.99
2019-03-01T06:21:52.961Z,99.99
2019-03-01T06:22:52.986Z,99.99
2019-03-01T06:23:53.009Z,99.99
2019-03-01T06:24:53.033Z,99.14
2019-03-01T06:25:53.065Z,95.83
2019-03-01T06:26:53.080Z,94.41
2019-03-01T06:27:53.102Z,96.91
2019-03-01T06:28:53.125Z,99.27
2019-03-01T06:29:53.149Z,98.99
2019-03-01T06:30:53.174Z,99.99
2019-03-01T06:31:53.199Z,99.99
2019-03-01T06:32:53.220Z,99.99
2019-03-01T06:33:53.247Z,99.99
2019-03-01T06:34:53.272Z,99.99
2019-03-01T06:35:53.295Z,99.99
2019-03-01T06:36:53.320Z,99.99
2019-03-01T06:37:53.344Z,99.99
2019-03-01T06:38:53.369Z,99.99
2019-03-01T06:39:53.390Z,99.99
2019-03-01T06:40:53.417Z,99.99
2019-03-01T06:41:53.439Z,99.99
2019-03-01T06:42:53.465Z,99.13
2019-03-01T06:43:53.486Z,99.99
2019-03-01T06:44:53.512Z,99.99
2019-03-01T06:45:53.534Z,99.75
2019-03-01T06:46:53.561Z,99.99
2019-03-01T06:47:53.583Z,99.99
2019-03-01T06:48:53.611Z,99.99
2019-03-01T06:49:53.630Z,99.99
2019-03-01T06:50:53.657Z,97.91
2019-03-01T06:51:53.681Z,97.96
2019-03-01T06:52:53.703Z,96.06
2019-03-01T06:53:53.731Z,94.98
2019-03-01T06:54:53.759Z,94.70
2019-03-01T06:55:53.779Z,91.91
2019-03-01T06:56:53.803Z,93.32
2019-03-01T06:57:53.830Z,94.46
2019-03-01T06:58:53.852Z,91.86
2019-03-01T06:59:53.878Z,91.39
2019-03-01T07:00:53.903Z,90.63
2019-03-01T07:01:53.928Z,90.49
2019-03-01T07:02:53.951Z,89.31
2019-03-01T07:03:53.978Z,83.40
2019-03-01T07:04:54.002Z,80.69
2019-03-01T07:06:02.945Z,79.75
2019-03-01T07:06:54.051Z,83.11
2019-03-01T07:07:54.078Z,85.95
2019-03-01T07:08:54.105Z,85.05
2019-03-01T07:09:54.132Z,86.29
2019-03-01T07:10:54.155Z,87.23
2019-03-01T07:11:54.182Z,86.66
2019-03-01T07:12:54.209Z,86.00
2019-03-01T07:13:54.232Z,85.77
2019-03-01T07:14:54.260Z,86.15
2019-03-01T07:15:54.286Z,88.51
2019-03-01T07:16:54.313Z,91.06
2019-03-01T07:17:54.338Z,88.98
2019-03-01T07:18:54.360Z,87.85
2019-03-01T07:19:54.389Z,88.04
2019-03-01T07:20:54.411Z,87.37
2019-03-01T07:21:54.435Z,87.18
2019-03-01T07:22:54.464Z,88.79
2019-03-01T07:23:54.487Z,86.90
2019-03-01T07:24:54.512Z,88.17
2019-03-01T07:25:54.980Z,86.71
2019-03-01T07:26:54.562Z,86.90
2019-03-01T07:27:54.589Z,87.56
2019-03-01T07:28:54.617Z,87.70
2019-03-01T07:29:54.644Z,87.32
2019-03-01T07:30:54.667Z,87.13
2019-03-01T07:31:54.694Z,85.91
2019-03-01T07:32:54.717Z,85.62
2019-03-01T07:33:54.748Z,84.16
2019-03-01T07:34:54.769Z,83.59
2019-03-01T07:35:54.794Z,86.19
2019-03-01T07:36:54.818Z,85.15
2019-03-01T07:37:54.854Z,84.30
2019-03-01T07:38:54.868Z,83.36
2019-03-01T07:39:54.896Z,84.35
2019-03-01T07:40:54.918Z,86.24
2019-03-01T07:41:54.949Z,86.62
2019-03-01T07:42:54.973Z,87.56
2019-03-01T07:43:54.996Z,88.04
2019-03-01T07:44:55.021Z,88.51
2019-03-01T07:45:55.048Z,87.85
2019-03-01T07:46:55.075Z,88.04
2019-03-01T07:47:55.098Z,88.79
2019-03-01T07:48:55.137Z,88.79
2019-03-01T07:49:55.149Z,88.13
2019-03-01T07:50:56.025Z,88.79
2019-03-01T07:51:55.204Z,89.17
2019-03-01T07:52:55.227Z,90.21
2019-03-01T07:53:55.253Z,88.79
2019-03-01T07:54:55.287Z,88.89
2019-03-01T07:55:55.304Z,90.21
2019-03-01T07:56:55.328Z,90.96
2019-03-01T07:57:55.356Z,92.76
2019-03-01T07:58:57.449Z,93.70
2019-03-01T07:59:55.407Z,93.61
2019-03-01T08:00:55.427Z,93.61
2019-03-01T08:01:55.999Z,94.27
2019-03-01T08:02:55.481Z,94.46
2019-03-01T08:03:55.507Z,94.27
2019-03-01T08:04:55.531Z,93.70
2019-03-01T08:05:55.553Z,93.61
2019-03-01T08:06:55.582Z,92.00
2019-03-01T08:07:56.617Z,91.53
2019-03-01T08:08:55.631Z,89.83
2019-03-01T08:09:55.653Z,88.04
2019-03-01T08:10:56.533Z,87.94
2019-03-01T08:11:55.704Z,87.75
2019-03-01T08:12:55.733Z,86.71
2019-03-01T08:13:55.759Z,86.52
2019-03-01T08:14:55.779Z,86.71
2019-03-01T08:15:55.802Z,86.85
2019-03-01T08:16:56.750Z,86.10
2019-03-01T08:17:55.859Z,85.86
2019-03-01T08:18:55.882Z,86.80
2019-03-01T08:19:58.659Z,87.47
2019-03-01T08:20:55.929Z,89.26
2019-03-01T08:21:55.960Z,91.44
2019-03-01T08:22:56.810Z,94.65
2019-03-01T08:23:56.008Z,95.87
2019-03-01T08:24:56.031Z,97.86
2019-03-01T08:25:58.740Z,99.84
2019-03-01T08:26:57.104Z,98.99
2019-03-01T08:27:56.106Z,99.27
2019-03-01T08:28:58.538Z,99.84
2019-03-01T08:29:56.155Z,99.99
2019-03-01T08:30:56.181Z,99.75
2019-03-01T08:31:56.716Z,98.24
2019-03-01T08:32:56.228Z,98.05
2019-03-01T08:33:56.257Z,95.97
2019-03-01T08:34:56.281Z,95.97
2019-03-01T08:35:56.308Z,97.29
2019-03-01T08:36:56.332Z,94.74
2019-03-01T08:37:56.356Z,93.51
2019-03-01T08:38:56.388Z,91.82
2019-03-01T08:39:56.411Z,91.63
2019-03-01T08:40:56.432Z,92.76
2019-03-01T08:42:00.250Z,93.89
2019-03-01T08:42:56.484Z,92.29
2019-03-01T08:43:56.510Z,90.30
2019-03-01T08:44:58.284Z,90.02
2019-03-01T08:45:56.561Z,91.25
2019-03-01T08:46:56.590Z,93.13
2019-03-01T08:47:58.744Z,93.51
2019-03-01T08:48:56.635Z,91.82
2019-03-01T08:49:56.659Z,91.34
2019-03-01T08:50:56.687Z,91.34
2019-03-01T08:51:58.548Z,91.25
2019-03-01T08:52:56.739Z,89.73
2019-03-01T08:53:56.760Z,89.73
2019-03-01T08:55:00.027Z,89.64
2019-03-01T08:55:56.812Z,88.89
2019-03-01T08:56:56.839Z,87.56
2019-03-01T08:57:59.676Z,87.37
2019-03-01T08:58:56.891Z,88.08
2019-03-01T08:59:56.913Z,86.10
2019-03-01T09:00:59.929Z,84.86
2019-03-01T09:01:56.962Z,85.15
2019-03-01T09:02:56.991Z,82.98
2019-03-01T09:03:57.015Z,82.17
2019-03-01T09:04:57.041Z,81.79
2019-03-01T09:05:57.067Z,81.32
2019-03-01T09:06:57.092Z,81.13
2019-03-01T09:07:57.136Z,80.22
2019-03-01T09:08:57.145Z,80.65
2019-03-01T09:09:58.018Z,83.40
2019-03-01T09:10:57.231Z,86.61
2019-03-01T09:11:57.224Z,87.65
2019-03-01T09:12:57.255Z,88.60
2019-03-01T09:13:57.279Z,87.04
2019-03-01T09:14:57.311Z,87.42
2019-03-01T09:15:57.334Z,87.70
2019-03-01T09:16:57.361Z,88.65
2019-03-01T09:17:57.386Z,88.84
2019-03-01T09:18:57.415Z,89.87
2019-03-01T09:20:00.163Z,90.06
2019-03-01T09:21:04.521Z,90.16
2019-03-01T09:21:57.495Z,91.77
2019-03-01T09:22:57.524Z,91.48
2019-03-01T09:23:57.551Z,92.10
2019-03-01T09:24:57.598Z,90.11
2019-03-01T09:25:57.606Z,91.05
2019-03-01T09:26:57.634Z,90.44
2019-03-01T09:27:57.741Z,90.30
2019-03-01T09:28:57.685Z,88.83
2019-03-01T09:29:59.052Z,86.79
2019-03-01T09:30:57.743Z,86.61
2019-03-01T09:31:58.676Z,89.36
2019-03-01T09:32:57.798Z,92.90
2019-03-01T09:33:57.827Z,93.94
2019-03-01T09:34:57.854Z,93.84
2019-03-01T09:35:57.887Z,94.84
2019-03-01T09:36:57.909Z,93.70
2019-03-01T09:37:57.938Z,86.23
2019-03-01T09:38:57.967Z,82.44
2019-03-01T09:40:05.278Z,81.21
2019-03-01T09:41:01.253Z,79.17
2019-03-01T09:42:03.550Z,78.03
2019-03-01T09:42:58.081Z,77.50
2019-03-01T09:43:59.653Z,76.65
2019-03-01T09:44:58.135Z,76.04
2019-03-01T09:45:58.167Z,77.42
2019-03-01T09:46:58.512Z,78.65
2019-03-01T09:47:58.231Z,79.75
2019-03-01T09:48:58.251Z,80.60
2019-03-01T09:50:00.159Z,80.51
2019-03-01T09:50:58.313Z,77.99
2019-03-01T09:51:58.346Z,75.15
2019-03-01T09:52:58.951Z,74.77
2019-03-01T09:53:58.404Z,77.91
2019-03-01T09:54:58.436Z,79.10
2019-03-01T09:56:00.028Z,81.26
2019-03-01T09:56:58.494Z,79.18
2019-03-01T09:57:58.526Z,77.61
2019-03-01T09:58:58.553Z,75.05
2019-03-01T09:59:58.586Z,75.02
2019-03-01T10:00:58.614Z,76.57
2019-03-01T10:01:58.644Z,73.68
2019-03-01T10:02:58.689Z,72.92
2019-03-01T10:03:58.705Z,71.31
2019-03-01T10:04:58.734Z,69.64
2019-03-01T10:05:58.765Z,70.11
2019-03-01T10:06:58.794Z,70.14
2019-03-01T10:07:58.829Z,73.88
2019-03-01T10:08:58.858Z,74.07
2019-03-01T10:09:58.887Z,74.07
2019-03-01T10:10:58.917Z,74.11
2019-03-01T10:11:58.955Z,74.26
2019-03-01T10:12:58.982Z,74.30
2019-03-01T10:13:59.013Z,74.30
2019-03-01T10:14:59.044Z,73.64
2019-03-01T10:15:59.072Z,74.62
2019-03-01T10:16:59.103Z,72.63
2019-03-01T10:17:59.138Z,70.36
2019-03-01T10:18:59.169Z,68.33
2019-03-01T10:19:59.202Z,70.01
2019-03-01T10:20:59.226Z,70.57
2019-03-01T10:21:59.262Z,70.70
2019-03-01T10:22:59.295Z,70.79
2019-03-01T10:23:59.321Z,70.04
2019-03-01T10:24:59.355Z,68.90
2019-03-01T10:25:59.382Z,69.89
2019-03-01T10:26:59.416Z,66.95
2019-03-01T10:27:59.445Z,66.76
2019-03-01T10:28:59.478Z,65.81
2019-03-01T10:29:59.507Z,64.96
2019-03-01T10:30:59.538Z,65.91
2019-03-01T10:31:59.571Z,66.86
2019-03-01T10:32:59.602Z,67.05
2019-03-01T10:33:59.633Z,66.67
2019-03-01T10:34:59.669Z,68.65
2019-03-01T10:35:59.700Z,68.46
2019-03-01T10:36:59.728Z,68.94
2019-03-01T10:37:59.760Z,69.38
2019-03-01T10:38:59.793Z,73.79
2019-03-01T10:39:59.825Z,77.48
2019-03-01T10:40:59.856Z,78.67
2019-03-01T10:41:59.889Z,79.71
2019-03-01T10:42:59.922Z,81.27
2019-03-01T10:43:59.950Z,83.17
2019-03-01T10:44:59.982Z,84.30
2019-03-01T10:46:00.012Z,86.38
2019-03-01T10:47:00.044Z,85.91
2019-03-01T10:48:00.076Z,85.53
2019-03-01T10:49:00.106Z,84.58
2019-03-01T10:50:00.289Z,82.88
2019-03-01T10:51:00.163Z,82.69
2019-03-01T10:52:00.198Z,82.88
2019-03-01T10:53:00.221Z,82.98
2019-03-01T10:54:00.249Z,81.46
2019-03-01T10:55:00.322Z,81.93
2019-03-01T10:56:00.309Z,79.95
2019-03-01T10:57:00.336Z,80.43
2019-03-01T10:58:00.365Z,82.12
2019-03-01T10:59:00.643Z,80.80
2019-03-01T11:00:00.419Z,79.38
2019-03-01T11:01:00.446Z,81.74
2019-03-01T11:02:00.474Z,81.93
2019-03-01T11:03:00.511Z,84.39
2019-03-01T11:04:00.533Z,84.68
2019-03-01T11:05:00.560Z,84.68
2019-03-01T11:06:00.586Z,83.92
2019-03-01T11:07:00.616Z,83.78
2019-03-01T11:08:00.643Z,84.64
2019-03-01T11:09:00.670Z,85.58
2019-03-01T11:10:00.696Z,85.53
2019-03-01T11:11:00.723Z,86.71
2019-03-01T11:12:00.750Z,85.68
2019-03-01T11:13:00.780Z,86.05
2019-03-01T11:14:00.807Z,85.34
2019-03-01T11:15:00.835Z,83.64
2019-03-01T11:16:00.859Z,82.98
2019-03-01T11:17:00.885Z,83.36
2019-03-01T11:18:00.911Z,83.73
2019-03-01T11:19:00.937Z,82.69
2019-03-01T11:20:00.968Z,83.26
2019-03-01T11:21:00.992Z,83.17
2019-03-01T11:22:01.018Z,83.64
2019-03-01T11:23:01.048Z,84.11
2019-03-01T11:24:01.072Z,81.74
2019-03-01T11:25:01.098Z,82.69
2019-03-01T11:26:01.125Z,85.01
2019-03-01T11:27:01.154Z,85.43
2019-03-01T11:28:01.183Z,84.58
2019-03-01T11:29:01.208Z,85.86
2019-03-01T11:30:01.234Z,85.77
2019-03-01T11:31:01.262Z,86.05
2019-03-01T11:32:01.337Z,84.92
2019-03-01T11:33:01.314Z,85.20
2019-03-01T11:34:01.344Z,85.15
2019-03-01T11:35:01.369Z,84.11
2019-03-01T11:36:01.395Z,84.11
2019-03-01T11:37:01.421Z,82.84
2019-03-01T11:38:01.447Z,81.80
2019-03-01T11:39:01.477Z,81.42
2019-03-01T11:40:01.501Z,81.71
2019-03-01T11:41:01.527Z,81.52
2019-03-01T11:42:01.555Z,81.42
2019-03-01T11:43:01.579Z,81.71
2019-03-01T11:44:01.607Z,83.12
2019-03-01T11:45:01.635Z,82.46
2019-03-01T11:46:01.661Z,81.33
2019-03-01T11:47:01.686Z,80.10
2019-03-01T11:48:01.712Z,80.85
2019-03-01T11:49:01.737Z,80.48
2019-03-01T11:50:01.763Z,77.69
2019-03-01T11:51:01.791Z,73.43
2019-03-01T11:52:01.815Z,73.09
2019-03-01T11:53:01.841Z,71.61
2019-03-01T11:54:01.867Z,72.75
2019-03-01T11:55:01.906Z,74.79
2019-03-01T11:56:01.921Z,77.40
2019-03-01T11:57:01.948Z,79.29
2019-03-01T11:58:01.975Z,79.86
2019-03-01T11:59:02.006Z,81.93
2019-03-01T12:00:02.031Z,81.61
2019-03-01T12:01:02.058Z,81.71
2019-03-01T12:02:02.082Z,80.85
2019-03-01T12:03:02.118Z,80.85
2019-03-01T12:04:02.141Z,80.38
2019-03-01T12:05:02.164Z,80.18
2019-03-01T12:06:02.190Z,76.31
2019-03-01T12:07:02.218Z,75.93
2019-03-01T12:08:02.245Z,74.51
2019-03-01T12:09:02.270Z,72.75
2019-03-01T12:10:02.300Z,72.33
2019-03-01T12:11:02.329Z,74.57
2019-03-01T12:12:02.352Z,75.45
2019-03-01T12:13:02.378Z,74.88
2019-03-01T12:14:02.408Z,75.32
2019-03-01T12:15:02.441Z,75.23
2019-03-01T12:16:02.464Z,76.14
2019-03-01T12:17:02.488Z,77.36
2019-03-01T12:18:02.519Z,78.12
2019-03-01T12:19:02.545Z,77.08
2019-03-01T12:20:02.576Z,78.31
2019-03-01T12:21:02.603Z,78.31
2019-03-01T12:22:02.638Z,79.25
2019-03-01T12:23:02.653Z,78.40
2019-03-01T12:24:02.681Z,78.78
2019-03-01T12:25:02.706Z,78.78
2019-03-01T12:26:02.731Z,79.91
2019-03-01T12:27:02.760Z,80.48
2019-03-01T12:28:02.786Z,78.97
2019-03-01T12:29:02.812Z,78.50
2019-03-01T12:30:02.839Z,80.95
2019-03-01T12:31:02.870Z,80.85
2019-03-01T12:32:02.894Z,80.00
2019-03-01T12:33:02.918Z,77.83
2019-03-01T12:34:02.947Z,76.51
2019-03-01T12:35:02.969Z,76.04
2019-03-01T12:36:02.999Z,75.51
2019-03-01T12:37:03.022Z,76.45
2019-03-01T12:38:03.049Z,76.26
2019-03-01T12:39:03.075Z,73.90
2019-03-01T12:40:03.100Z,73.62
2019-03-01T12:41:03.128Z,75.98
2019-03-01T12:42:03.156Z,78.63
2019-03-01T12:43:03.178Z,78.44
2019-03-01T12:44:03.204Z,77.55
2019-03-01T12:45:03.234Z,77.83
2019-03-01T12:46:03.259Z,77.93
2019-03-01T12:47:03.287Z,77.93
2019-03-01T12:48:03.310Z,78.16
2019-03-01T12:49:03.341Z,76.61
2019-03-01T12:50:03.365Z,77.36
2019-03-01T12:51:03.387Z,78.12
2019-03-01T12:52:03.412Z,77.83
2019-03-01T12:53:03.437Z,78.68